Time;durP1;ratioP1;P1;durP2;ratioP2;P2;SDS_P1;SDS_P2;PMS_P1;PMS_P2;Temp;Humidity;BMP_temperature;BMP_pressure;BME280_temperature;BME280_humidity;BME280_pressure;Samples;Min_cycle;Max_cycle;Signal;HPM_P1;HPM_P2
2024/01/24 00:00:08;;;;;;;9.20;3.45;;;5.20;1.00;;;;;;5069459;27;20239;-79
2024/01/24 00:02:35;;;;;;;9.38;3.15;;;5.20;1.00;;;;;;5072996;27;20236;-77
2024/01/24 00:05:03;;;;;;;5.93;3.72;;;5.20;1.00;;;;;;5070575;27;20303;-76
2024/01/24 00:07:31;;;;;;;8.48;4.00;;;5.30;1.00;;;;;;5070250;27;20232;-78
2024/01/24 00:09:58;;;;;;;6.18;3.40;;;5.30;1.00;;;;;;5070615;27;20326;-77
2024/01/24 00:12:25;;;;;;;10.18;4.28;;;5.30;1.00;;;;;;5071712;28;20451;-75
2024/01/24 00:14:53;;;;;;;11.85;3.67;;;5.30;1.00;;;;;;5072032;28;20240;-78
2024/01/24 00:17:20;;;;;;;9.82;4.47;;;5.40;1.00;;;;;;5069373;28;20241;-79
2024/01/24 00:19:47;;;;;;;11.07;3.75;;;5.40;1.00;;;;;;5073585;27;20390;-78
2024/01/24 00:22:15;;;;;;;10.75;4.30;;;5.40;1.00;;;;;;5072032;28;20317;-76
2024/01/24 00:24:42;;;;;;;7.78;3.00;;;5.40;1.00;;;;;;5069704;28;20334;-77
2024/01/24 00:27:11;;;;;;;8.00;3.28;;;5.50;1.00;;;;;;5070102;27;20762;-77
2024/01/24 00:29:38;;;;;;;8.38;3.90;;;5.50;1.00;;;;;;5068690;28;20242;-78
2024/01/24 00:32:05;;;;;;;11.25;3.22;;;5.60;1.00;;;;;;5068985;27;20332;-77
2024/01/24 00:34:32;;;;;;;12.52;4.72;;;5.50;1.00;;;;;;5067238;28;20724;-75
2024/01/24 00:36:58;;;;;;;8.25;3.60;;;5.60;1.00;;;;;;5068618;27;20778;-78
2024/01/24 00:39:27;;;;;;;8.45;3.05;;;5.60;1.00;;;;;;5066206;28;20316;-73
2024/01/24 00:41:56;;;;;;;9.90;3.45;;;5.60;1.00;;;;;;5069126;27;20232;-79
2024/01/24 00:44:22;;;;;;;7.68;3.20;;;5.60;1.00;;;;;;5070577;28;20867;-77
2024/01/24 00:46:49;;;;;;;11.90;3.85;;;5.60;1.00;;;;;;5070343;28;20238;-80
2024/01/24 00:49:16;;;;;;;7.55;3.58;;;5.60;1.00;;;;;;5068000;28;20721;-77
2024/01/24 00:51:44;;;;;;;12.70;3.92;;;5.60;1.00;;;;;;5073956;28;21126;-77
2024/01/24 00:54:10;;;;;;;9.27;3.88;;;5.60;1.00;;;;;;5068757;28;20421;-77
2024/01/24 00:56:40;;;;;;;6.97;2.78;;;5.60;1.00;;;;;;5070811;28;21055;-78
2024/01/24 00:59:07;;;;;;;6.25;3.00;;;5.70;1.00;;;;;;5065081;28;20237;-75
2024/01/24 01:01:34;;;;;;;5.45;2.63;;;5.70;1.00;;;;;;5072396;28;20237;-77
2024/01/24 01:04:01;;;;;;;4.78;2.63;;;5.70;1.00;;;;;;5068848;28;20252;-79
2024/01/24 01:06:28;;;;;;;8.88;2.88;;;5.80;1.00;;;;;;5055555;28;20323;-78
2024/01/24 01:08:55;;;;;;;5.40;2.70;;;5.80;1.00;;;;;;5062085;28;20248;-78
2024/01/24 01:11:22;;;;;;;6.85;3.20;;;5.90;1.00;;;;;;5068775;28;20244;-77
2024/01/24 01:13:59;;;;;;;8.02;3.25;;;5.90;1.00;;;;;;5070770;28;20706;-78
2024/01/24 01:16:26;;;;;;;7.88;2.67;;;5.90;1.00;;;;;;5068174;28;20243;-70
2024/01/24 01:18:53;;;;;;;4.90;2.67;;;5.90;1.00;;;;;;5068886;28;20336;-71
2024/01/24 01:21:20;;;;;;;3.38;2.38;;;5.90;1.00;;;;;;5066861;27;20341;-71
2024/01/24 01:23:47;;;;;;;3.97;2.67;;;6.00;1.00;;;;;;5070233;27;20576;-70
2024/01/24 01:26:14;;;;;;;7.15;2.85;;;6.00;1.00;;;;;;5069001;28;20324;-70
2024/01/24 01:28:41;;;;;;;7.78;3.05;;;6.00;1.00;;;;;;5066650;28;20235;-72
2024/01/24 01:31:09;;;;;;;3.50;2.28;;;6.00;1.00;;;;;;5068819;28;20237;-73
2024/01/24 01:33:36;;;;;;;6.53;2.70;;;6.00;1.00;;;;;;5066609;28;20324;-70
2024/01/24 01:36:04;;;;;;;6.00;2.75;;;6.10;1.00;;;;;;5069212;27;20252;-70
2024/01/24 01:38:31;;;;;;;5.90;2.28;;;6.10;1.00;;;;;;5069034;28;20747;-71
2024/01/24 01:40:58;;;;;;;6.63;2.40;;;6.20;1.00;;;;;;5066759;27;20308;-71
2024/01/24 01:43:25;;;;;;;6.07;2.40;;;6.10;1.00;;;;;;5070147;28;20229;-70
2024/01/24 01:45:58;;;;;;;7.95;2.30;;;6.20;1.00;;;;;;5066548;28;20959;-71
2024/01/24 01:48:27;;;;;;;4.78;2.45;;;6.20;1.00;;;;;;5066676;28;20287;-71
2024/01/24 01:50:54;;;;;;;3.75;2.33;;;6.20;1.00;;;;;;5066302;28;20290;-71
2024/01/24 01:53:21;;;;;;;5.85;2.05;;;6.30;1.00;;;;;;5068385;27;20239;-71
2024/01/24 01:55:49;;;;;;;3.30;2.17;;;6.30;1.00;;;;;;5068432;27;20267;-71
2024/01/24 01:58:17;;;;;;;2.70;2.17;;;6.30;1.00;;;;;;5066222;27;20464;-70
2024/01/24 02:00:47;;;;;;;2.17;1.90;;;6.30;1.00;;;;;;5065385;28;20237;-72
2024/01/24 02:03:14;;;;;;;2.97;2.20;;;6.40;1.00;;;;;;5068481;27;20307;-70
2024/01/24 02:05:43;;;;;;;2.30;1.98;;;6.40;1.00;;;;;;5067138;28;20269;-70
2024/01/24 02:08:10;;;;;;;4.50;1.90;;;6.40;1.00;;;;;;5068982;28;20267;-71
2024/01/24 02:10:38;;;;;;;2.85;1.73;;;6.50;1.00;;;;;;5068264;27;20245;-70
2024/01/24 02:13:05;;;;;;;4.03;1.53;;;6.50;1.00;;;;;;5066873;28;20299;-70
2024/01/24 02:15:32;;;;;;;3.58;1.95;;;6.50;1.00;;;;;;5057527;27;20599;-71
2024/01/24 02:17:59;;;;;;;5.40;1.83;;;6.50;1.00;;;;;;5067189;28;20247;-71
2024/01/24 02:20:30;;;;;;;2.67;1.88;;;6.60;1.00;;;;;;5069915;28;20305;-70
2024/01/24 02:22:58;;;;;;;2.33;1.70;;;6.60;1.00;;;;;;5065003;28;21073;-71
2024/01/24 02:25:26;;;;;;;2.25;1.70;;;6.60;1.00;;;;;;5055898;28;20388;-71
2024/01/24 02:27:53;;;;;;;3.78;1.80;;;6.60;1.00;;;;;;5064177;28;20249;-77
2024/01/24 02:30:20;;;;;;;3.85;1.88;;;6.60;1.00;;;;;;5059530;28;20237;-78
2024/01/24 02:32:47;;;;;;;3.50;2.05;;;6.70;1.00;;;;;;5069013;28;20239;-78
2024/01/24 02:35:14;;;;;;;1.93;1.80;;;6.70;1.00;;;;;;5065685;28;20281;-75
2024/01/24 02:37:42;;;;;;;2.63;1.90;;;6.70;1.00;;;;;;5067737;28;21055;-78
2024/01/24 02:40:10;;;;;;;3.20;2.30;;;6.70;1.00;;;;;;5068267;27;20292;-79
2024/01/24 02:42:38;;;;;;;2.72;1.92;;;6.80;1.00;;;;;;5068704;28;20539;-76
2024/01/24 02:45:07;;;;;;;3.08;2.40;;;6.80;1.00;;;;;;5059076;27;20239;-79
2024/01/24 02:47:34;;;;;;;3.13;2.05;;;6.80;1.00;;;;;;5067877;27;20294;-77
2024/01/24 02:50:03;;;;;;;4.70;3.30;;;6.90;1.00;;;;;;5066409;28;21099;-80
2024/01/24 02:52:30;;;;;;;5.07;3.13;;;6.90;1.00;;;;;;5068603;28;20702;-80
2024/01/24 02:54:58;;;;;;;3.10;2.40;;;6.90;1.00;;;;;;5066768;28;20509;-74
2024/01/24 02:57:24;;;;;;;2.65;2.45;;;6.90;1.00;;;;;;5062525;27;20943;-78
2024/01/24 02:59:53;;;;;;;5.10;2.63;;;7.00;1.00;;;;;;5066681;28;20249;-75
2024/01/24 03:02:20;;;;;;;3.97;2.07;;;7.00;1.00;;;;;;5069464;28;20325;-79
2024/01/24 03:04:47;;;;;;;4.28;2.30;;;7.00;1.00;;;;;;5064828;28;20478;-78
2024/01/24 03:07:14;;;;;;;5.20;3.10;;;7.10;1.00;;;;;;5067449;28;20282;-77
2024/01/24 03:09:41;;;;;;;2.78;2.20;;;7.10;1.00;;;;;;5068316;28;20719;-78
2024/01/24 03:12:08;;;;;;;3.10;2.10;;;7.10;1.00;;;;;;5067861;28;20910;-74
2024/01/24 03:14:35;;;;;;;2.88;2.42;;;7.10;1.00;;;;;;5066423;28;20479;-77
2024/01/24 03:17:05;;;;;;;3.72;2.83;;;7.20;1.00;;;;;;5067432;28;20776;-75
2024/01/24 03:19:32;;;;;;;3.90;2.80;;;7.20;1.00;;;;;;5071785;28;20585;-78
2024/01/24 03:21:59;;;;;;;2.53;2.33;;;7.20;1.00;;;;;;5071279;27;20478;-76
2024/01/24 03:24:26;;;;;;;2.57;2.37;;;7.20;1.00;;;;;;5072528;28;20532;-79
2024/01/24 03:26:54;;;;;;;3.83;2.90;;;7.30;1.00;;;;;;5070084;28;20444;-78
2024/01/24 03:29:24;;;;;;;4.00;3.33;;;7.30;1.00;;;;;;5071918;28;20545;-76
2024/01/24 03:31:51;;;;;;;3.00;2.63;;;7.30;1.00;;;;;;5073598;27;20466;-74
2024/01/24 03:34:20;;;;;;;3.40;2.40;;;7.40;1.00;;;;;;5073302;27;20582;-78
2024/01/24 03:36:47;;;;;;;3.10;2.33;;;7.40;1.00;;;;;;5075332;27;20577;-79
2024/01/24 03:39:14;;;;;;;4.23;2.80;;;7.40;1.00;;;;;;5072227;28;20478;-78
2024/01/24 03:41:41;;;;;;;2.80;2.50;;;7.50;1.00;;;;;;5065010;28;20948;-76
2024/01/24 03:44:10;;;;;;;3.65;2.92;;;7.50;1.00;;;;;;5072690;28;20502;-79
2024/01/24 03:46:39;;;;;;;5.93;2.60;;;7.50;1.00;;;;;;5073238;28;20243;-78
2024/01/24 03:49:06;;;;;;;5.30;3.20;;;7.60;1.00;;;;;;5072485;28;20813;-78
2024/01/24 03:51:34;;;;;;;5.97;2.70;;;7.60;1.00;;;;;;5069140;28;20486;-73
2024/01/24 03:54:01;;;;;;;6.60;2.57;;;7.60;1.00;;;;;;5074745;28;20597;-78
2024/01/24 03:56:28;;;;;;;3.75;2.45;;;7.60;1.00;;;;;;5071443;28;20545;-78
2024/01/24 03:58:55;;;;;;;3.83;2.77;;;7.70;1.00;;;;;;5065069;28;20362;-79
2024/01/24 04:01:21;;;;;;;6.80;2.77;;;7.70;1.00;;;;;;5068601;28;20502;-78
2024/01/24 04:03:48;;;;;;;6.77;2.97;;;7.70;1.00;;;;;;5074961;28;20982;-76
2024/01/24 04:06:15;;;;;;;3.57;2.20;;;7.80;1.00;;;;;;5071972;28;20451;-79
2024/01/24 04:08:46;;;;;;;2.75;2.00;;;7.80;1.00;;;;;;5072358;27;20462;-80
2024/01/24 04:11:14;;;;;;;4.17;2.30;;;7.90;1.00;;;;;;5068899;27;20362;-78
2024/01/24 04:13:43;;;;;;;2.90;2.50;;;7.90;1.00;;;;;;5072827;28;20556;-78
2024/01/24 04:16:10;;;;;;;4.30;2.20;;;7.90;1.00;;;;;;5068342;28;21395;-79
2024/01/24 04:18:38;;;;;;;4.13;2.50;;;8.00;1.00;;;;;;5073303;27;20753;-78
2024/01/24 04:21:08;;;;;;;5.07;2.13;;;8.00;1.00;;;;;;5071310;27;21173;-78
2024/01/24 04:23:35;;;;;;;3.10;1.70;;;8.00;1.00;;;;;;5074818;27;20470;-79
2024/01/24 04:26:05;;;;;;;3.83;2.27;;;8.00;1.00;;;;;;5071462;28;20502;-77
2024/01/24 04:28:33;;;;;;;4.97;2.40;;;8.10;1.00;;;;;;5070964;28;21138;-78
2024/01/24 04:31:00;;;;;;;3.67;2.27;;;8.10;1.00;;;;;;5069141;28;20513;-78
2024/01/24 04:33:27;;;;;;;3.53;2.17;;;8.20;1.00;;;;;;5070505;28;20550;-79
2024/01/24 04:35:57;;;;;;;4.53;2.30;;;8.20;1.00;;;;;;5069607;28;20455;-77
2024/01/24 04:38:25;;;;;;;4.33;2.10;;;8.30;1.00;;;;;;5071390;27;20459;-79
2024/01/24 04:40:53;;;;;;;4.33;2.43;;;8.30;1.00;;;;;;5072321;27;20563;-74
2024/01/24 04:43:21;;;;;;;3.90;2.27;;;8.40;1.00;;;;;;5070151;28;21277;-79
2024/01/24 04:45:48;;;;;;;4.13;2.50;;;8.40;1.00;;;;;;5075488;28;20439;-78
2024/01/24 04:48:15;;;;;;;5.33;2.90;;;8.40;1.00;;;;;;5067192;27;20478;-74
2024/01/24 04:50:42;;;;;;;6.13;2.60;;;8.50;1.00;;;;;;5061996;27;20459;-69
2024/01/24 04:53:09;;;;;;;8.73;2.83;;;8.50;1.00;;;;;;5063873;28;20463;-69
2024/01/24 04:55:36;;;;;;;4.40;2.27;;;8.60;1.00;;;;;;5071600;28;20459;-70
2024/01/24 04:58:04;;;;;;;3.50;2.40;;;8.60;1.00;;;;;;5058734;27;20451;-69
2024/01/24 05:00:32;;;;;;;2.67;2.23;;;8.70;1.00;;;;;;5065989;27;21757;-70
2024/01/24 05:03:00;;;;;;;2.53;1.90;;;8.70;1.00;;;;;;5066915;28;20581;-70
2024/01/24 05:05:27;;;;;;;2.87;2.57;;;8.80;1.00;;;;;;5064104;28;21634;-73
2024/01/24 05:07:53;;;;;;;5.63;2.30;;;8.80;1.00;;;;;;5061007;28;20556;-69
2024/01/24 05:10:21;;;;;;;3.17;2.17;;;8.90;1.00;;;;;;5066493;27;21917;-71
2024/01/24 05:12:48;;;;;;;6.20;2.60;;;8.90;1.00;;;;;;5062531;28;20533;-70
2024/01/24 05:15:14;;;;;;;6.90;2.43;;;9.00;1.00;;;;;;5066502;28;20468;-71
2024/01/24 05:17:43;;;;;;;2.13;1.87;;;9.00;1.00;;;;;;5067893;28;20579;-70
2024/01/24 05:20:11;;;;;;;6.43;2.70;;;9.10;1.00;;;;;;5069212;28;20585;-71
2024/01/24 05:22:38;;;;;;;6.50;2.57;;;9.20;1.00;;;;;;5065324;27;20472;-74
2024/01/24 05:25:06;;;;;;;3.00;1.67;;;9.20;1.00;;;;;;5069850;28;20444;-73
2024/01/24 05:27:33;;;;;;;2.77;2.17;;;9.20;1.00;;;;;;5067222;28;20524;-71
2024/01/24 05:30:01;;;;;;;3.97;2.00;;;9.30;1.00;;;;;;5065378;28;20495;-72
2024/01/24 05:32:28;;;;;;;5.03;2.30;;;9.40;1.00;;;;;;5064873;27;20459;-72
2024/01/24 05:34:56;;;;;;;4.53;2.10;;;9.40;1.00;;;;;;5066092;27;20834;-69
2024/01/24 05:37:23;;;;;;;3.87;2.13;;;9.40;1.00;;;;;;5059723;27;20507;-70
2024/01/24 05:39:52;;;;;;;1.53;1.43;;;9.40;1.00;;;;;;5067005;27;21080;-69
2024/01/24 05:42:19;;;;;;;3.80;2.07;;;9.40;1.00;;;;;;5066756;27;20463;-70
2024/01/24 05:44:46;;;;;;;2.50;1.90;;;9.50;1.00;;;;;;5066654;28;20533;-77
2024/01/24 05:47:14;;;;;;;2.63;1.80;;;9.50;1.00;;;;;;5066535;27;20474;-69
2024/01/24 05:49:41;;;;;;;3.63;2.07;;;9.50;1.00;;;;;;5069407;27;20520;-69
2024/01/24 05:52:11;;;;;;;3.23;1.97;;;9.50;1.00;;;;;;5065834;28;20471;-74
2024/01/24 05:54:38;;;;;;;4.83;2.23;;;9.60;1.00;;;;;;5066687;28;20478;-70
2024/01/24 05:57:06;;;;;;;2.60;1.67;;;9.60;1.00;;;;;;5067856;27;20546;-77
2024/01/24 05:59:33;;;;;;;3.70;1.70;;;9.60;1.00;;;;;;5068302;28;20552;-76
2024/01/24 06:02:00;;;;;;;3.50;2.00;;;9.60;1.00;;;;;;5068071;27;20475;-74
2024/01/24 06:04:27;;;;;;;2.73;1.80;;;9.70;1.00;;;;;;5067906;28;20561;-74
2024/01/24 06:07:00;;;;;;;2.73;1.70;;;9.70;1.00;;;;;;5066523;27;20492;-75
2024/01/24 06:09:29;;;;;;;1.77;1.40;;;9.70;1.00;;;;;;5067793;27;21271;-75
2024/01/24 06:11:57;;;;;;;2.33;2.13;;;9.70;1.00;;;;;;5072019;27;20574;-75
2024/01/24 06:14:24;;;;;;;1.93;1.70;;;9.70;1.00;;;;;;5058245;28;20458;-75
2024/01/24 06:16:51;;;;;;;3.93;2.20;;;9.70;1.00;;;;;;5068351;28;20460;-73
2024/01/24 06:19:19;;;;;;;4.77;2.40;;;9.70;1.00;;;;;;5063324;27;21072;-75
2024/01/24 06:21:46;;;;;;;4.00;1.80;;;9.70;1.00;;;;;;5060493;28;21026;-75
2024/01/24 06:24:13;;;;;;;3.37;1.87;;;9.80;1.00;;;;;;5065862;27;20525;-76
2024/01/24 06:26:42;;;;;;;3.70;1.83;;;9.80;1.00;;;;;;5065954;28;20966;-77
2024/01/24 06:29:13;;;;;;;3.20;1.70;;;9.80;1.00;;;;;;5066706;28;20490;-75
2024/01/24 06:31:39;;;;;;;2.50;1.40;;;9.80;1.00;;;;;;5067731;28;20479;-76
2024/01/24 06:34:06;;;;;;;2.17;1.43;;;9.80;1.00;;;;;;5065454;27;20930;-75
2024/01/24 06:36:34;;;;;;;2.20;1.37;;;9.90;1.00;;;;;;5069543;28;20483;-76
2024/01/24 06:39:02;;;;;;;2.90;1.47;;;9.90;1.00;;;;;;5066714;28;20982;-76
2024/01/24 06:41:29;;;;;;;2.70;1.73;;;9.80;1.00;;;;;;5071141;28;21003;-75
2024/01/24 06:43:58;;;;;;;3.83;2.30;;;9.80;1.00;;;;;;5060864;28;20452;-77
2024/01/24 06:46:27;;;;;;;2.67;1.63;;;9.90;1.00;;;;;;5068036;28;20550;-77
2024/01/24 06:48:54;;;;;;;3.30;1.40;;;9.90;1.00;;;;;;5071725;28;20565;-74
2024/01/24 06:51:21;;;;;;;3.00;1.70;;;9.90;1.00;;;;;;5068907;28;20455;-74
2024/01/24 06:53:48;;;;;;;1.33;1.20;;;10.00;1.00;;;;;;5069124;27;20459;-74
2024/01/24 06:56:16;;;;;;;2.10;1.90;;;10.00;1.00;;;;;;5061653;27;20459;-75
2024/01/24 06:58:43;;;;;;;3.10;1.20;;;10.10;1.00;;;;;;5070005;28;21192;-74
2024/01/24 07:01:12;;;;;;;2.27;1.70;;;10.10;1.00;;;;;;5050730;27;20471;-77
2024/01/24 07:03:38;;;;;;;2.47;2.27;;;10.20;1.00;;;;;;5071668;28;20526;-75
2024/01/24 07:06:07;;;;;;;1.60;1.37;;;10.20;1.00;;;;;;5069220;28;20444;-75
2024/01/24 07:08:34;;;;;;;4.90;2.00;;;10.20;1.00;;;;;;5075858;28;20435;-78
2024/01/24 07:11:02;;;;;;;5.40;1.70;;;10.20;1.00;;;;;;5071447;27;20463;-79
2024/01/24 07:13:29;;;;;;;6.20;2.70;;;10.20;1.00;;;;;;5072838;27;20591;-80
2024/01/24 07:15:56;;;;;;;4.57;1.67;;;9.90;1.00;;;;;;5071436;28;20471;-78
2024/01/24 07:18:25;;;;;;;4.90;1.33;;;9.80;1.00;;;;;;5071397;28;20504;-78
2024/01/24 07:20:52;;;;;;;5.90;1.97;;;9.70;1.00;;;;;;5068763;27;20472;-78
2024/01/24 07:23:22;;;;;;;3.97;1.77;;;9.60;1.00;;;;;;5072688;28;20505;-79
2024/01/24 07:25:49;;;;;;;3.33;1.50;;;9.60;1.00;;;;;;5075335;27;21025;-79
2024/01/24 07:28:20;;;;;;;9.13;2.80;;;9.60;1.00;;;;;;5068096;28;21139;-75
2024/01/24 07:30:47;;;;;;;4.20;1.77;;;9.60;1.00;;;;;;5076820;27;20464;-73
2024/01/24 07:33:14;;;;;;;4.60;1.73;;;9.70;1.00;;;;;;5074589;28;20498;-76
2024/01/24 07:35:44;;;;;;;3.10;1.67;;;9.60;1.00;;;;;;5049068;28;20418;-74
2024/01/24 07:38:12;;;;;;;3.90;1.80;;;9.60;1.00;;;;;;5062960;28;20415;-77
2024/01/24 07:40:39;;;;;;;3.90;1.97;;;9.60;1.00;;;;;;5053524;28;20960;-77
2024/01/24 07:43:06;;;;;;;7.33;2.87;;;9.60;1.00;;;;;;5061207;27;20578;-76
2024/01/24 07:45:34;;;;;;;6.07;2.20;;;9.60;1.00;;;;;;5064289;28;20487;-78
2024/01/24 07:48:02;;;;;;;5.30;2.30;;;9.60;1.00;;;;;;5071861;27;20416;-75
2024/01/24 07:50:29;;;;;;;9.53;3.90;;;9.60;1.00;;;;;;5062509;28;20521;-80
2024/01/24 07:53:06;;;;;;;7.30;2.60;;;9.60;1.00;;;;;;5072845;27;20459;-79
2024/01/24 07:55:35;;;;;;;10.50;3.13;;;9.70;1.00;;;;;;5060065;28;20543;-78
2024/01/24 07:58:04;;;;;;;5.13;2.70;;;9.70;1.00;;;;;;5064762;28;20544;-78
2024/01/24 08:00:32;;;;;;;7.23;2.70;;;9.70;1.00;;;;;;5062210;28;20444;-76
2024/01/24 08:03:02;;;;;;;8.60;3.37;;;9.80;1.00;;;;;;5070286;27;20432;-77
2024/01/24 08:05:32;;;;;;;6.33;2.73;;;9.80;1.00;;;;;;5072090;28;20423;-80
2024/01/24 08:08:01;;;;;;;7.03;3.37;;;9.90;1.00;;;;;;5069724;27;20462;-78
2024/01/24 08:10:28;;;;;;;5.30;3.03;;;9.90;1.00;;;;;;5072244;27;21065;-78
2024/01/24 08:12:55;;;;;;;7.70;3.03;;;9.90;1.00;;;;;;5069468;27;20531;-76
2024/01/24 08:15:22;;;;;;;4.30;3.00;;;10.00;1.00;;;;;;5068072;28;20982;-78
2024/01/24 08:17:49;;;;;;;4.60;3.40;;;10.00;1.00;;;;;;5066394;27;20518;-72
2024/01/24 08:20:19;;;;;;;6.40;3.10;;;10.10;1.00;;;;;;5068022;28;20495;-73
2024/01/24 08:22:46;;;;;;;8.80;3.27;;;10.00;1.00;;;;;;5068312;27;20467;-71
2024/01/24 08:25:15;;;;;;;4.90;2.53;;;10.00;1.00;;;;;;5069015;28;20493;-73
2024/01/24 08:27:42;;;;;;;7.50;3.20;;;10.00;1.00;;;;;;5065192;27;20471;-75
2024/01/24 08:30:12;;;;;;;6.50;3.50;;;10.00;1.00;;;;;;5068351;28;20593;-75
2024/01/24 08:32:40;;;;;;;10.40;2.60;;;10.20;1.00;;;;;;5068776;28;20478;-73
2024/01/24 08:35:09;;;;;;;8.43;3.07;;;10.40;1.00;;;;;;5067886;28;20536;-74
2024/01/24 08:37:36;;;;;;;5.27;2.53;;;10.60;1.00;;;;;;5070715;28;20785;-76
2024/01/24 08:40:05;;;;;;;5.63;2.63;;;10.60;1.00;;;;;;5070176;27;20450;-75
2024/01/24 08:42:33;;;;;;;5.27;2.50;;;10.50;1.00;;;;;;5071418;27;20465;-73
2024/01/24 08:45:01;;;;;;;9.40;3.10;;;10.70;1.00;;;;;;5069941;28;20472;-74
2024/01/24 08:47:30;;;;;;;7.70;2.77;;;10.80;1.00;;;;;;5066570;28;20891;-75
2024/01/24 08:49:57;;;;;;;8.50;2.60;;;10.80;1.00;;;;;;5063816;28;20568;-73
2024/01/24 08:52:26;;;;;;;5.00;2.83;;;10.60;1.00;;;;;;5065280;28;20605;-72
2024/01/24 08:54:53;;;;;;;6.70;2.93;;;10.50;1.00;;;;;;5066001;27;21045;-74
2024/01/24 08:57:27;;;;;;;8.50;2.43;;;10.50;1.00;;;;;;5058569;28;20448;-71
2024/01/24 08:59:59;;;;;;;9.53;2.90;;;10.40;1.00;;;;;;5077066;27;20486;-74
2024/01/24 09:02:26;;;;;;;4.20;1.93;;;10.30;1.00;;;;;;5074673;28;20556;-74
2024/01/24 09:04:53;;;;;;;7.23;3.13;;;10.10;1.00;;;;;;5069305;27;21762;-73
2024/01/24 09:07:21;;;;;;;5.97;3.03;;;9.90;1.00;;;;;;5068147;27;21146;-73
2024/01/24 09:09:49;;;;;;;7.87;2.97;;;9.90;1.00;;;;;;5067370;27;20476;-74
2024/01/24 09:12:19;;;;;;;6.13;2.50;;;9.80;1.00;;;;;;5066205;28;20469;-75
2024/01/24 09:14:46;;;;;;;8.07;3.13;;;9.70;1.00;;;;;;5068478;27;20662;-75
2024/01/24 09:17:15;;;;;;;7.27;2.93;;;9.70;1.00;;;;;;5068935;27;20557;-74
2024/01/24 09:19:42;;;;;;;6.83;2.50;;;9.60;1.00;;;;;;5060155;28;20472;-74
2024/01/24 09:22:09;;;;;;;5.83;2.53;;;9.60;1.00;;;;;;5067402;27;20478;-74
2024/01/24 09:24:36;;;;;;;7.77;2.93;;;9.60;1.00;;;;;;5067642;27;20466;-73
2024/01/24 09:27:03;;;;;;;5.00;2.47;;;9.70;1.00;;;;;;5066224;28;20462;-72
2024/01/24 09:29:30;;;;;;;9.37;2.57;;;9.60;1.00;;;;;;5069325;27;20837;-74
2024/01/24 09:31:58;;;;;;;8.27;2.73;;;9.60;1.00;;;;;;5061258;28;20568;-71
2024/01/24 09:34:27;;;;;;;5.27;2.40;;;9.60;1.00;;;;;;5057883;28;20482;-74
2024/01/24 09:36:55;;;;;;;5.43;2.40;;;9.70;1.00;;;;;;5067297;28;20843;-75
2024/01/24 09:39:22;;;;;;;5.47;2.60;;;9.80;1.00;;;;;;5058106;27;20946;-73
2024/01/24 09:41:52;;;;;;;6.37;2.67;;;9.90;1.00;;;;;;5078944;27;20451;-72
2024/01/24 09:44:19;;;;;;;5.27;2.50;;;10.20;1.00;;;;;;5066947;27;20463;-72
2024/01/24 09:46:49;;;;;;;8.70;2.90;;;10.40;1.00;;;;;;5067408;27;20470;-74
2024/01/24 09:49:20;;;;;;;7.73;3.37;;;10.70;1.00;;;;;;5063502;27;20508;-74
2024/01/24 09:51:50;;;;;;;8.80;2.60;;;11.00;1.00;;;;;;5067245;28;20962;-72
2024/01/24 09:54:18;;;;;;;7.83;2.77;;;11.20;1.00;;;;;;5066920;27;20475;-75
2024/01/24 09:56:48;;;;;;;8.37;3.20;;;11.40;1.00;;;;;;5065102;27;20613;-73
2024/01/24 09:59:15;;;;;;;9.73;3.27;;;11.60;1.00;;;;;;5060738;28;21307;-73
2024/01/24 10:01:42;;;;;;;6.10;2.60;;;11.70;1.00;;;;;;5064171;28;20464;-74
2024/01/24 10:04:11;;;;;;;6.17;2.90;;;11.80;1.00;;;;;;5065377;27;20468;-74
2024/01/24 10:06:40;;;;;;;5.60;2.67;;;11.80;1.00;;;;;;5065612;28;21255;-74
2024/01/24 10:09:08;;;;;;;9.47;3.67;;;12.30;1.00;;;;;;5066940;28;20468;-79
2024/01/24 10:11:37;;;;;;;9.57;3.00;;;12.90;1.00;;;;;;5069898;27;20480;-80
2024/01/24 10:14:05;;;;;;;7.70;2.57;;;13.60;1.00;;;;;;5067967;28;20478;-80
2024/01/24 10:16:31;;;;;;;5.73;2.60;;;14.40;1.00;;;;;;5070960;28;20462;-78
2024/01/24 10:19:00;;;;;;;6.23;2.60;;;14.70;1.00;;;;;;5070880;28;20495;-78
2024/01/24 10:21:27;;;;;;;6.90;2.97;;;14.60;1.00;;;;;;5067888;28;20466;-78
2024/01/24 10:23:55;;;;;;;9.80;4.37;;;14.20;1.00;;;;;;5063724;28;20564;-78
2024/01/24 10:26:23;;;;;;;8.30;2.60;;;13.70;1.00;;;;;;5059554;28;20467;-76
2024/01/24 10:28:50;;;;;;;10.00;3.20;;;13.40;1.00;;;;;;5069369;27;20477;-77
2024/01/24 10:31:20;;;;;;;10.60;3.47;;;12.80;1.00;;;;;;5066115;28;20465;-78
2024/01/24 10:33:48;;;;;;;8.17;3.70;;;12.40;1.00;;;;;;5068472;28;20479;-78
2024/01/24 10:36:22;;;;;;;8.90;3.30;;;12.20;1.00;;;;;;5066830;28;20457;-78
2024/01/24 10:38:49;;;;;;;8.23;3.57;;;12.10;1.00;;;;;;5062424;28;20433;-74
2024/01/24 10:41:18;;;;;;;11.90;3.90;;;12.10;1.00;;;;;;5065692;28;20464;-80
2024/01/24 10:43:51;;;;;;;6.90;3.07;;;12.20;1.00;;;;;;5068983;28;20568;-74
2024/01/24 10:46:21;;;;;;;9.17;3.47;;;12.30;1.00;;;;;;5072949;28;20493;-79
2024/01/24 10:48:49;;;;;;;9.10;3.83;;;12.40;1.00;;;;;;5075687;27;20466;-81
2024/01/24 10:51:16;;;;;;;10.30;4.47;;;12.30;1.00;;;;;;5078276;27;20494;-77
2024/01/24 10:53:45;;;;;;;10.03;4.37;;;12.20;1.00;;;;;;5076334;27;20433;-80
2024/01/24 10:56:16;;;;;;;12.93;4.03;;;12.40;1.00;;;;;;5077476;28;20504;-82
2024/01/24 10:58:43;;;;;;;8.07;4.13;;;12.60;1.00;;;;;;5070954;28;20452;-76
2024/01/24 11:01:13;;;;;;;9.93;4.00;;;12.50;1.00;;;;;;5076021;28;20513;-80
2024/01/24 11:03:40;;;;;;;9.87;3.77;;;12.50;1.00;;;;;;5072294;27;20580;-82
2024/01/24 11:06:15;;;;;;;13.17;5.13;;;12.50;1.00;;;;;;5069508;28;20434;-84
2024/01/24 11:08:48;;;;;;;11.30;5.07;;;12.60;1.00;;;;;;5075024;28;20485;-82
2024/01/24 11:11:19;;;;;;;9.67;4.50;;;12.50;1.00;;;;;;5074877;28;20483;-80
2024/01/24 11:13:47;;;;;;;11.00;4.07;;;12.40;1.00;;;;;;5069304;28;20839;-82
2024/01/24 11:16:41;;;;;;;10.70;3.77;;;12.30;1.00;;;;;;5072220;28;20460;-81
2024/01/24 11:19:22;;;;;;;13.60;4.57;;;12.30;1.00;;;;;;5053736;27;21240;-72
2024/01/24 11:21:55;;;;;;;9.77;3.90;;;12.20;1.00;;;;;;5063520;28;20518;-73
2024/01/24 11:24:52;;;;;;;12.17;5.13;;;12.20;1.00;;;;;;5068755;27;20453;-76
2024/01/24 11:27:27;;;;;;;18.00;4.40;;;12.10;1.00;;;;;;5063903;27;20420;-72
2024/01/24 11:29:55;;;;;;;14.37;3.93;;;12.10;1.00;;;;;;5068184;27;20587;-75
2024/01/24 11:33:04;;;;;;;11.67;4.07;;;12.10;1.00;;;;;;5069091;28;20432;-72
2024/01/24 11:35:37;;;;;;;13.40;4.07;;;12.10;1.00;;;;;;5061563;28;20461;-71
2024/01/24 11:38:08;;;;;;;9.40;4.03;;;12.00;1.00;;;;;;5067457;28;20596;-72
2024/01/24 11:40:38;;;;;;;13.20;4.80;;;12.00;1.00;;;;;;5071897;27;21007;-71
2024/01/24 11:43:05;;;;;;;15.77;4.83;;;12.00;1.00;;;;;;5064241;28;21125;-71
2024/01/24 11:45:35;;;;;;;15.83;4.50;;;12.10;1.00;;;;;;5065422;28;20603;-72
2024/01/24 11:48:08;;;;;;;11.63;3.83;;;12.20;1.00;;;;;;5060818;27;20469;-75
2024/01/24 11:50:34;;;;;;;10.77;4.20;;;12.20;1.00;;;;;;5060828;28;20593;-73
2024/01/24 11:53:01;;;;;;;11.40;4.40;;;12.20;1.00;;;;;;5062607;27;20487;-71
2024/01/24 11:55:29;;;;;;;10.03;3.37;;;12.30;1.00;;;;;;5066600;28;20467;-71
2024/01/24 11:57:56;;;;;;;11.40;4.10;;;12.30;1.00;;;;;;5065619;28;20484;-71
2024/01/24 12:00:26;;;;;;;12.30;3.67;;;12.30;1.00;;;;;;5062207;28;20464;-73
2024/01/24 12:02:53;;;;;;;11.33;4.13;;;12.60;1.00;;;;;;5067618;28;21272;-72
2024/01/24 12:05:21;;;;;;;9.17;3.33;;;13.10;1.00;;;;;;5064935;27;21297;-70
2024/01/24 12:07:49;;;;;;;7.07;3.30;;;13.40;1.00;;;;;;5060439;28;20986;-74
2024/01/24 12:10:16;;;;;;;8.10;3.00;;;14.40;1.00;;;;;;5069926;27;20479;-71
2024/01/24 12:12:45;;;;;;;6.20;2.87;;;15.10;1.00;;;;;;5064847;28;20881;-71
2024/01/24 12:15:12;;;;;;;8.30;3.57;;;14.90;1.00;;;;;;5063934;27;20958;-75
2024/01/24 12:17:43;;;;;;;7.37;3.30;;;14.70;1.00;;;;;;5063983;27;20459;-74
2024/01/24 12:20:20;;;;;;;8.60;3.87;;;14.20;1.00;;;;;;5072729;27;20483;-72
2024/01/24 12:22:49;;;;;;;10.00;3.63;;;13.70;1.00;;;;;;5066812;27;21111;-74
2024/01/24 12:25:16;;;;;;;10.93;4.20;;;13.40;1.00;;;;;;5066916;28;20458;-73
2024/01/24 12:27:43;;;;;;;8.73;3.27;;;13.00;1.00;;;;;;5065835;27;20894;-71
2024/01/24 12:30:14;;;;;;;7.50;3.53;;;12.80;1.00;;;;;;5064731;27;20484;-72
2024/01/24 12:32:42;;;;;;;7.00;3.03;;;12.70;1.00;;;;;;5068551;28;20559;-71
2024/01/24 12:35:11;;;;;;;6.90;3.33;;;12.60;1.00;;;;;;5055539;28;20442;-73
2024/01/24 12:37:39;;;;;;;9.83;3.03;;;12.50;1.00;;;;;;5062386;28;20451;-73
2024/01/24 12:40:11;;;;;;;14.53;4.40;;;12.30;1.00;;;;;;5065767;27;20551;-76
2024/01/24 12:42:39;;;;;;;14.87;4.37;;;12.20;1.00;;;;;;5070501;27;20482;-76
2024/01/24 12:45:11;;;;;;;13.83;3.30;;;12.10;1.00;;;;;;5070492;28;21037;-78
2024/01/24 12:47:38;;;;;;;8.83;4.30;;;12.10;1.00;;;;;;5069605;27;20463;-77
2024/01/24 12:50:06;;;;;;;17.90;4.37;;;12.00;1.00;;;;;;5066793;27;20614;-77
2024/01/24 12:52:33;;;;;;;21.70;4.50;;;11.90;1.00;;;;;;5068616;27;20460;-79
2024/01/24 12:55:00;;;;;;;12.73;4.40;;;11.90;1.00;;;;;;5069557;28;20996;-77
2024/01/24 12:57:28;;;;;;;10.40;5.27;;;11.90;1.00;;;;;;5065148;27;20463;-77
2024/01/24 12:59:57;;;;;;;16.20;4.03;;;11.80;1.00;;;;;;5065230;27;20559;-77
2024/01/24 13:02:24;;;;;;;10.67;4.10;;;11.90;1.00;;;;;;5070049;28;20452;-75
2024/01/24 13:04:52;;;;;;;12.40;4.23;;;11.80;1.00;;;;;;5067358;28;20461;-78
2024/01/24 13:07:19;;;;;;;14.40;4.13;;;11.90;1.00;;;;;;5066999;28;20564;-75